createdAt,value
2022-09-09T00:02:06.057Z,98420.00
2022-09-09T00:04:35.081Z,98404.16
2022-09-09T00:07:22.796Z,98415.78
2022-09-09T00:10:08.097Z,98417.75
2022-09-09T00:12:59.714Z,98404.94
2022-09-09T00:15:32.116Z,98405.31
2022-09-09T00:18:15.296Z,98404.28
2022-09-09T00:21:07.193Z,98403.31
2022-09-09T00:23:36.755Z,98404.13
2022-09-09T00:26:10.416Z,98405.47
2022-09-09T00:28:49.694Z,98401.84
2022-09-09T00:31:28.276Z,98393.81
2022-09-09T00:33:58.953Z,98396.94
2022-09-09T00:36:27.965Z,98386.22
2022-09-09T00:39:00.296Z,98389.28
2022-09-09T00:41:41.422Z,98383.47
2022-09-09T00:44:32.225Z,98388.28
2022-09-09T00:47:17.370Z,98389.91
2022-09-09T00:50:09.632Z,98396.06
2022-09-09T00:52:35.956Z,98389.38
2022-09-09T00:55:14.394Z,98391.81
2022-09-09T00:57:40.756Z,98402.66
2022-09-09T01:00:31.146Z,98397.00
2022-09-09T01:03:27.322Z,98390.75
2022-09-09T01:06:17.301Z,98401.47
2022-09-09T01:09:08.790Z,98401.84
2022-09-09T01:11:54.166Z,98399.63
2022-09-09T01:14:35.609Z,98401.16
2022-09-09T01:17:10.280Z,98404.28
2022-09-09T01:19:45.724Z,98399.44
2022-09-09T01:22:34.669Z,98401.09
2022-09-09T01:25:20.999Z,98398.09
2022-09-09T01:27:50.885Z,98396.09
2022-09-09T01:30:19.139Z,98403.91
2022-09-09T01:32:56.213Z,98397.41
2022-09-09T01:35:41.047Z,98388.56
2022-09-09T01:38:07.792Z,98389.78
2022-09-09T01:40:34.396Z,98403.13
2022-09-09T01:43:00.915Z,98409.16
2022-09-09T01:45:27.449Z,98408.22
2022-09-09T01:47:54.015Z,98413.16
2022-09-09T01:50:21.698Z,98410.28
2022-09-09T01:52:53.283Z,98416.19
2022-09-09T01:55:29.541Z,98415.88
2022-09-09T01:58:14.718Z,98413.28
2022-09-09T02:00:50.710Z,98409.78
2022-09-09T02:03:28.826Z,98416.56
2022-09-09T02:06:15.179Z,98408.34
2022-09-09T02:08:52.827Z,98414.53
2022-09-09T02:11:22.752Z,98415.78
2022-09-09T02:13:52.537Z,98423.00
2022-09-09T02:16:35.970Z,98421.09
2022-09-09T02:19:09.892Z,98417.00
2022-09-09T02:21:36.733Z,98419.88
2022-09-09T02:24:06.696Z,98419.13
2022-09-09T02:26:36.657Z,98427.78
2022-09-09T02:29:07.176Z,98419.78
2022-09-09T02:31:35.224Z,98421.84
2022-09-09T02:34:04.501Z,98420.34
2022-09-09T02:36:35.098Z,98408.59
2022-09-09T02:39:02.248Z,98408.19
2022-09-09T02:41:34.018Z,98412.50
2022-09-09T02:44:01.335Z,98411.09
2022-09-09T02:47:05.244Z,98410.84
2022-09-09T02:49:34.674Z,98413.38
2022-09-09T02:52:08.241Z,98415.22
2022-09-09T02:54:39.292Z,98408.03
2022-09-09T02:57:11.354Z,98408.44
2022-09-09T02:59:38.689Z,98429.88
2022-09-09T03:02:05.966Z,98423.50
2022-09-09T03:04:32.530Z,98423.56
2022-09-09T03:07:00.045Z,98423.31
2022-09-09T03:09:26.426Z,98428.66
2022-09-09T03:11:53.616Z,98427.03
2022-09-09T03:14:22.978Z,98424.41
2022-09-09T03:16:49.377Z,98428.31
2022-09-09T03:19:15.808Z,98431.19
2022-09-09T03:21:43.370Z,98432.59
2022-09-09T03:24:09.722Z,98430.72
2022-09-09T03:26:36.230Z,98426.56
2022-09-09T03:29:02.901Z,98429.38
2022-09-09T03:31:29.306Z,98421.13
2022-09-09T03:33:55.724Z,98435.09
2022-09-09T03:36:22.081Z,98438.13
2022-09-09T03:38:48.566Z,98432.81
2022-09-09T03:41:14.902Z,98439.25
2022-09-09T03:43:41.345Z,98429.34
2022-09-09T03:46:08.784Z,98429.97
2022-09-09T03:48:35.349Z,98431.81
2022-09-09T03:51:01.886Z,98431.38
2022-09-09T03:53:28.743Z,98438.34
2022-09-09T03:55:56.922Z,98433.66
2022-09-09T03:58:24.240Z,98435.22
2022-09-09T04:01:09.998Z,98426.63
2022-09-09T04:03:37.177Z,98426.19
2022-09-09T04:06:05.436Z,98423.31
2022-09-09T04:08:31.881Z,98415.94
2022-09-09T04:10:58.688Z,98421.69
2022-09-09T04:13:26.301Z,98430.75
2022-09-09T04:15:54.699Z,98426.22
2022-09-09T04:18:21.690Z,98422.78
2022-09-09T04:20:49.534Z,98424.44
2022-09-09T04:23:16.249Z,98425.69
2022-09-09T04:25:50.542Z,98417.03
2022-09-09T04:28:18.493Z,98416.88
2022-09-09T04:30:46.255Z,98423.00
2022-09-09T04:33:13.778Z,98431.81
2022-09-09T04:35:48.603Z,98424.56
2022-09-09T04:38:16.016Z,98416.84
2022-09-09T04:40:47.893Z,98418.03
2022-09-09T04:43:15.121Z,98416.63
2022-09-09T04:45:45.077Z,98421.72
2022-09-09T04:48:11.675Z,98421.69
2022-09-09T04:50:38.382Z,98431.78
2022-09-09T04:53:06.424Z,98426.25
2022-09-09T04:55:33.693Z,98427.47
2022-09-09T04:58:04.905Z,98443.72
2022-09-09T05:00:31.622Z,98444.56
2022-09-09T05:02:58.269Z,98439.81
2022-09-09T05:05:24.624Z,98433.56
2022-09-09T05:07:50.967Z,98436.88
2022-09-09T05:10:17.373Z,98434.41
2022-09-09T05:12:43.784Z,98434.56
2022-09-09T05:15:10.618Z,98437.84
2022-09-09T05:17:37.161Z,98434.16
2022-09-09T05:20:06.617Z,98441.00
2022-09-09T05:22:35.956Z,98446.94
2022-09-09T05:25:02.289Z,98450.28
2022-09-09T05:27:36.760Z,98447.97
2022-09-09T05:30:03.701Z,98448.56
2022-09-09T05:32:30.957Z,98443.94
2022-09-09T05:34:57.472Z,98444.16
2022-09-09T05:37:23.829Z,98440.91
2022-09-09T05:39:50.392Z,98440.03
2022-09-09T05:42:17.123Z,98446.81
2022-09-09T05:44:43.791Z,98450.44
2022-09-09T05:47:10.353Z,98449.25
2022-09-09T05:49:36.958Z,98447.94
2022-09-09T05:52:03.383Z,98448.09
2022-09-09T05:54:29.690Z,98452.16
2022-09-09T05:56:56.230Z,98465.66
2022-09-09T05:59:22.577Z,98459.69
2022-09-09T06:01:48.993Z,98461.38
2022-09-09T06:04:15.588Z,98461.03
2022-09-09T06:06:41.919Z,98455.97
2022-09-09T06:09:09.545Z,98467.78
2022-09-09T06:11:38.060Z,98463.41
2022-09-09T06:14:05.859Z,98456.34
2022-09-09T06:16:32.995Z,98445.13
2022-09-09T06:19:00.335Z,98449.16
2022-09-09T06:21:29.327Z,98440.81
2022-09-09T06:24:00.184Z,98452.88
2022-09-09T06:26:30.645Z,98451.41
2022-09-09T06:28:57.754Z,98446.50
2022-09-09T06:31:29.892Z,98451.25
2022-09-09T06:33:57.884Z,98445.00
2022-09-09T06:36:32.817Z,98444.47
2022-09-09T06:38:59.834Z,98454.38
2022-09-09T06:41:28.526Z,98443.19
2022-09-09T06:43:55.484Z,98445.41
2022-09-09T06:46:24.468Z,98438.59
2022-09-09T06:48:51.078Z,98442.41
2022-09-09T06:51:22.537Z,98441.28
2022-09-09T06:53:54.605Z,98447.63
2022-09-09T06:56:25.294Z,98452.09
2022-09-09T06:58:52.262Z,98452.34
2022-09-09T07:01:24.880Z,98449.66
2022-09-09T07:03:53.800Z,98453.59
2022-09-09T07:06:23.188Z,98452.16
2022-09-09T07:08:57.084Z,98456.75
2022-09-09T07:11:25.768Z,98452.47
2022-09-09T07:13:52.857Z,98451.03
2022-09-09T07:16:20.886Z,98447.84
2022-09-09T07:18:47.870Z,98446.53
2022-09-09T07:21:15.600Z,98443.78
2022-09-09T07:23:46.693Z,98434.34
2022-09-09T07:26:15.982Z,98426.44
2022-09-09T07:28:43.427Z,98433.63
2022-09-09T07:31:24.778Z,98436.44
2022-09-09T07:33:51.189Z,98440.22
2022-09-09T07:36:21.083Z,98448.84
2022-09-09T07:38:50.361Z,98440.00
2022-09-09T07:41:23.627Z,98440.16
2022-09-09T07:43:51.283Z,98433.38
2022-09-09T07:46:19.688Z,98441.41
2022-09-09T07:48:51.634Z,98446.31
2022-09-09T07:51:24.741Z,98442.75
2022-09-09T07:54:00.439Z,98449.16
2022-09-09T07:56:29.277Z,98451.63
2022-09-09T07:58:57.421Z,98453.50
2022-09-09T08:01:36.319Z,98457.72
2022-09-09T08:04:05.672Z,98463.22
2022-09-09T08:06:36.569Z,98465.50
2022-09-09T08:09:03.943Z,98475.09
2022-09-09T08:11:34.244Z,98467.41
2022-09-09T08:14:03.975Z,98466.19
2022-09-09T08:16:33.831Z,98467.00
2022-09-09T08:19:00.491Z,98472.50
2022-09-09T08:21:32.721Z,98476.38
2022-09-09T08:24:00.980Z,98474.63
2022-09-09T08:26:29.625Z,98467.00
2022-09-09T08:28:58.193Z,98460.31
2022-09-09T08:31:25.654Z,98461.16
2022-09-09T08:33:53.369Z,98459.91
2022-09-09T08:36:27.001Z,98456.94
2022-09-09T08:38:55.942Z,98456.53
2022-09-09T08:41:43.471Z,98461.44
2022-09-09T08:44:24.179Z,98470.34
2022-09-09T08:47:05.575Z,98466.06
2022-09-09T08:49:53.861Z,98474.44
2022-09-09T08:52:30.162Z,98476.66
2022-09-09T08:55:03.969Z,98467.34
2022-09-09T08:57:33.272Z,98467.75
2022-09-09T08:59:59.816Z,98461.72
2022-09-09T09:02:43.897Z,98466.09
2022-09-09T09:05:15.955Z,98469.84
2022-09-09T09:08:05.032Z,98475.53
2022-09-09T09:10:48.886Z,98480.69
2022-09-09T09:13:23.290Z,98470.81
2022-09-09T09:15:56.766Z,98470.50
2022-09-09T09:18:23.194Z,98469.22
2022-09-09T09:20:57.992Z,98462.25
2022-09-09T09:23:37.262Z,98456.91
2022-09-09T09:26:09.984Z,98462.34
2022-09-09T09:28:37.850Z,98463.72
2022-09-09T09:31:10.070Z,98468.47
2022-09-09T09:33:49.863Z,98461.06
2022-09-09T09:36:17.489Z,98456.41
2022-09-09T09:41:45.209Z,98461.94
2022-09-09T09:44:41.388Z,98462.56
2022-09-09T09:47:13.881Z,98466.03
2022-09-09T09:49:40.989Z,98453.75
2022-09-09T09:52:15.315Z,98450.34
2022-09-09T09:54:43.133Z,98448.63
2022-09-09T09:57:13.923Z,98441.59
2022-09-09T09:59:40.976Z,98441.88
2022-09-09T10:02:16.376Z,98446.53
2022-09-09T10:04:42.968Z,98434.69
2022-09-09T10:07:21.891Z,98432.38
2022-09-09T10:09:55.478Z,98437.81
2022-09-09T10:12:38.401Z,98435.91
2022-09-09T10:15:34.367Z,98425.06
2022-09-09T10:18:39.714Z,98431.00
2022-09-09T10:21:24.668Z,98441.28
2022-09-09T10:24:09.425Z,98430.16
2022-09-09T10:26:59.933Z,98432.00
2022-09-09T10:29:35.332Z,98414.53
2022-09-09T10:32:25.783Z,98415.66
2022-09-09T10:34:57.291Z,98418.22
2022-09-09T10:37:51.136Z,98412.28
2022-09-09T10:40:30.597Z,98411.25
2022-09-09T10:43:05.492Z,98413.97
2022-09-09T10:45:59.269Z,98419.03
2022-09-09T10:48:36.376Z,98410.25
2022-09-09T10:51:30.022Z,98423.22
2022-09-09T10:54:15.239Z,98423.47
2022-09-09T10:56:45.128Z,98424.22
2022-09-09T10:59:36.818Z,98433.94
2022-09-09T11:02:26.509Z,98424.06
2022-09-09T11:04:59.176Z,98422.19
2022-09-09T11:07:33.997Z,98413.03
2022-09-09T11:10:06.114Z,98417.28
2022-09-09T11:12:38.276Z,98417.19
2022-09-09T11:15:15.582Z,98408.63
2022-09-09T11:17:51.654Z,98396.16
2022-09-09T11:20:18.233Z,98408.28
2022-09-09T11:22:52.099Z,98400.59
2022-09-09T11:25:39.965Z,98395.00
2022-09-09T11:28:28.288Z,98395.78
2022-09-09T11:31:13.044Z,98399.28
2022-09-09T11:34:05.109Z,98387.97
2022-09-09T11:36:40.387Z,98401.38
2022-09-09T11:39:37.675Z,98417.16
2022-09-09T11:42:13.212Z,98433.69
2022-09-09T11:44:40.440Z,98434.25
2022-09-09T11:47:27.853Z,98434.97
2022-09-09T11:49:54.352Z,98427.13
2022-09-09T11:52:36.764Z,98446.63
2022-09-09T11:55:26.575Z,98454.00
2022-09-09T11:58:04.389Z,98454.75
2022-09-09T12:00:43.760Z,98452.09
2022-09-09T12:03:44.603Z,98447.00
2022-09-09T12:06:28.769Z,98449.56
2022-09-09T12:09:07.174Z,98448.97
2022-09-09T12:11:33.621Z,98445.69
2022-09-09T12:14:01.657Z,98437.00
2022-09-09T12:16:37.270Z,98443.75
2022-09-09T12:19:26.272Z,98439.56
2022-09-09T12:22:14.893Z,98437.38
2022-09-09T12:24:45.000Z,98452.88
2022-09-09T12:27:32.567Z,98442.03
2022-09-09T12:30:12.551Z,98439.72
2022-09-09T12:32:38.968Z,98428.34
2022-09-09T12:35:14.247Z,98429.44
2022-09-09T12:37:52.777Z,98433.75
2022-09-09T12:40:25.443Z,98423.97
2022-09-09T12:42:52.537Z,98411.09
2022-09-09T12:45:20.860Z,98400.09
2022-09-09T12:48:09.088Z,98418.59
2022-09-09T12:51:00.930Z,98413.78
2022-09-09T12:53:31.123Z,98405.50
2022-09-09T12:56:12.802Z,98412.84
2022-09-09T12:58:39.768Z,98425.88
2022-09-09T13:01:13.451Z,98410.88
2022-09-09T13:03:44.164Z,98415.50
2022-09-09T13:06:29.389Z,98406.38
2022-09-09T13:09:04.492Z,98408.13
2022-09-09T13:11:42.087Z,98405.72
2022-09-09T13:14:27.630Z,98414.09
2022-09-09T13:17:05.447Z,98421.88
2022-09-09T13:19:39.681Z,98417.44
2022-09-09T13:22:28.629Z,98411.06
2022-09-09T13:25:02.267Z,98395.44
2022-09-09T13:27:44.502Z,98392.50
2022-09-09T13:30:24.395Z,98394.53
2022-09-09T13:33:16.427Z,98399.41
2022-09-09T13:35:47.945Z,98395.03
2022-09-09T13:38:27.067Z,98397.13
2022-09-09T13:40:55.600Z,98390.06
2022-09-09T13:43:30.494Z,98391.16
2022-09-09T13:46:00.286Z,98389.88
2022-09-09T13:48:27.225Z,98383.91
2022-09-09T13:51:09.488Z,98376.06
2022-09-09T13:53:36.723Z,98382.13
2022-09-09T13:56:03.589Z,98381.38
2022-09-09T13:58:30.028Z,98378.53
2022-09-09T14:00:56.659Z,98386.06
2022-09-09T14:03:23.185Z,98384.00
2022-09-09T14:05:50.061Z,98388.38
2022-09-09T14:08:22.538Z,98389.41
2022-09-09T14:10:49.069Z,98392.72
2022-09-09T14:16:37.771Z,98381.19
2022-09-09T14:19:04.648Z,98370.84
2022-09-09T14:21:31.064Z,98378.22
2022-09-09T14:23:57.678Z,98383.72
2022-09-09T14:26:25.259Z,98387.09
2022-09-09T14:28:55.239Z,98379.81
2022-09-09T14:31:25.820Z,98379.84
2022-09-09T14:33:52.566Z,98377.66
2022-09-09T14:36:19.572Z,98375.28
2022-09-09T14:38:46.014Z,98375.56
2022-09-09T14:41:17.973Z,98374.41
2022-09-09T14:43:45.587Z,98372.28
2022-09-09T14:46:14.607Z,98377.75
2022-09-09T14:48:41.558Z,98382.44
2022-09-09T14:51:09.981Z,98378.63
2022-09-09T14:53:36.726Z,98381.31
2022-09-09T14:56:10.962Z,98375.22
2022-09-09T14:58:38.496Z,98384.00
2022-09-09T15:01:09.939Z,98375.91
2022-09-09T15:03:36.674Z,98380.06
2022-09-09T15:06:12.002Z,98378.44
2022-09-09T15:08:42.539Z,98371.16
2022-09-09T15:11:11.049Z,98382.59
2022-09-09T15:13:38.877Z,98369.69
2022-09-09T15:16:07.454Z,98385.81
2022-09-09T15:18:34.762Z,98384.56
2022-09-09T15:21:01.229Z,98379.97
2022-09-09T15:23:28.205Z,98365.97
2022-09-09T15:25:55.373Z,98371.19
2022-09-09T15:28:22.195Z,98373.25
2022-09-09T15:30:53.437Z,98365.75
2022-09-09T15:33:22.198Z,98362.34
2022-09-09T15:35:48.620Z,98356.13
2022-09-09T15:38:15.002Z,98357.38
2022-09-09T15:40:41.471Z,98362.34
2022-09-09T15:43:08.680Z,98362.47
2022-09-09T15:45:35.297Z,98354.22
2022-09-09T15:48:03.013Z,98363.44
2022-09-09T15:50:29.595Z,98359.72
2022-09-09T15:52:55.891Z,98367.13
2022-09-09T15:55:22.272Z,98367.25
2022-09-09T15:57:48.917Z,98366.53
2022-09-09T16:00:15.600Z,98369.91
2022-09-09T16:02:41.917Z,98376.50
2022-09-09T16:05:08.601Z,98371.88
2022-09-09T16:07:34.896Z,98370.63
2022-09-09T16:10:01.347Z,98367.97
2022-09-09T16:12:27.903Z,98369.38
2022-09-09T16:14:54.534Z,98365.31
2022-09-09T16:17:21.026Z,98376.47
2022-09-09T16:19:47.604Z,98371.84
2022-09-09T16:22:14.000Z,98377.00
2022-09-09T16:24:40.266Z,98377.81
2022-09-09T16:27:06.578Z,98381.09
2022-09-09T16:29:33.135Z,98383.28
2022-09-09T16:32:03.555Z,98390.59
2022-09-09T16:34:30.773Z,98397.38
2022-09-09T16:36:57.189Z,98380.00
2022-09-09T16:39:24.180Z,98387.09
2022-09-09T16:41:50.931Z,98397.41
2022-09-09T16:44:18.772Z,98393.03
2022-09-09T16:46:46.724Z,98399.56
2022-09-09T16:49:14.793Z,98403.63
2022-09-09T16:51:49.470Z,98410.41
2022-09-09T16:54:18.443Z,98410.16
2022-09-09T16:56:47.107Z,98415.56
2022-09-09T16:59:19.204Z,98413.91
2022-09-09T17:01:48.464Z,98416.38
2022-09-09T17:04:17.739Z,98416.66
2022-09-09T17:06:47.448Z,98413.66
2022-09-09T17:09:14.153Z,98409.84
2022-09-09T17:11:40.845Z,98408.47
2022-09-09T17:14:09.923Z,98415.50
2022-09-09T17:16:36.749Z,98414.69
2022-09-09T17:19:04.764Z,98411.91
2022-09-09T17:21:32.877Z,98415.16
2022-09-09T17:23:59.722Z,98409.19
2022-09-09T17:26:31.396Z,98414.31
2022-09-09T17:28:59.701Z,98414.84
2022-09-09T17:31:27.821Z,98422.94
2022-09-09T17:33:55.817Z,98413.44
2022-09-09T17:36:25.319Z,98415.81
2022-09-09T17:38:52.809Z,98414.41
2022-09-09T17:41:23.387Z,98421.41
2022-09-09T17:43:50.137Z,98418.13
2022-09-09T17:46:23.070Z,98418.56
2022-09-09T17:48:52.137Z,98421.50
2022-09-09T17:51:20.824Z,98416.31
2022-09-09T17:53:49.398Z,98424.63
2022-09-09T17:56:18.358Z,98435.44
2022-09-09T17:58:44.785Z,98447.84
2022-09-09T18:01:14.091Z,98440.22
2022-09-09T18:03:42.081Z,98451.28
2022-09-09T18:06:11.299Z,98453.97
2022-09-09T18:08:37.617Z,98446.94
2022-09-09T18:11:04.791Z,98453.34
2022-09-09T18:13:31.788Z,98453.84
2022-09-09T18:15:58.668Z,98453.53
2022-09-09T18:18:26.179Z,98463.50
2022-09-09T18:20:59.615Z,98472.38
2022-09-09T18:23:25.972Z,98472.31
2022-09-09T18:25:52.291Z,98470.41
2022-09-09T18:28:20.256Z,98472.22
2022-09-09T18:30:49.621Z,98473.47
2022-09-09T18:33:17.301Z,98476.69
2022-09-09T18:35:43.778Z,98475.81
2022-09-09T18:38:10.057Z,98477.69
2022-09-09T18:40:36.413Z,98472.53
2022-09-09T18:43:02.778Z,98483.84
2022-09-09T18:45:29.525Z,98478.13
2022-09-09T18:47:55.906Z,98477.91
2022-09-09T18:50:22.819Z,98481.34
2022-09-09T18:52:49.183Z,98475.88
2022-09-09T18:55:15.688Z,98488.06
2022-09-09T18:57:42.427Z,98489.72
2022-09-09T19:00:09.541Z,98490.75
2022-09-09T19:02:35.878Z,98488.34
2022-09-09T19:05:02.239Z,98489.72
2022-09-09T19:07:28.539Z,98487.25
2022-09-09T19:09:54.904Z,98490.47
2022-09-09T19:12:21.600Z,98490.22
2022-09-09T19:14:47.991Z,98494.78
2022-09-09T19:17:14.867Z,98499.38
2022-09-09T19:19:41.355Z,98503.66
2022-09-09T19:22:08.147Z,98499.25
2022-09-09T19:24:34.846Z,98509.75
2022-09-09T19:27:03.141Z,98504.22
2022-09-09T19:29:32.476Z,98496.78
2022-09-09T19:34:46.884Z,98499.53
2022-09-09T19:37:17.692Z,98504.13
2022-09-09T19:39:44.903Z,98500.38
2022-09-09T19:42:11.269Z,98507.06
2022-09-09T19:44:37.820Z,98503.25
2022-09-09T19:47:04.276Z,98516.03
2022-09-09T19:49:30.601Z,98515.22
2022-09-09T19:51:57.033Z,98525.69
2022-09-09T19:54:23.383Z,98522.84
2022-09-09T19:56:49.869Z,98523.50
2022-09-09T19:59:16.292Z,98530.19
2022-09-09T20:01:44.878Z,98528.13
2022-09-09T20:04:12.722Z,98530.63
2022-09-09T20:06:42.222Z,98542.38
2022-09-09T20:09:12.610Z,98539.13
2022-09-09T20:11:38.950Z,98539.63
2022-09-09T20:14:05.333Z,98540.31
2022-09-09T20:16:32.421Z,98536.38
2022-09-09T20:19:03.777Z,98532.91
2022-09-09T20:21:31.845Z,98534.81
2022-09-09T20:24:00.872Z,98550.66
2022-09-09T20:26:27.418Z,98550.09
2022-09-09T20:28:54.696Z,98551.72
2022-09-09T20:31:23.874Z,98545.38
2022-09-09T20:33:51.172Z,98544.81
2022-09-09T20:36:19.948Z,98547.72
2022-09-09T20:38:50.792Z,98552.66
2022-09-09T20:41:18.942Z,98555.47
2022-09-09T20:43:46.663Z,98555.34
2022-09-09T20:46:13.084Z,98564.84
2022-09-09T20:48:39.490Z,98561.22
2022-09-09T20:51:06.533Z,98564.50
2022-09-09T20:53:33.295Z,98567.88
2022-09-09T20:56:04.254Z,98571.03
2022-09-09T20:58:38.368Z,98569.16
2022-09-09T21:01:05.755Z,98559.69
2022-09-09T21:03:35.658Z,98574.53
2022-09-09T21:06:01.952Z,98575.00
2022-09-09T21:08:28.742Z,98578.91
2022-09-09T21:10:55.591Z,98573.03
2022-09-09T21:13:22.931Z,98574.19
2022-09-09T21:15:50.128Z,98569.97
2022-09-09T21:18:17.927Z,98575.13
2022-09-09T21:20:45.735Z,98568.06
2022-09-09T21:23:16.605Z,98577.81
2022-09-09T21:25:43.920Z,98566.44
2022-09-09T21:28:11.806Z,98562.75
2022-09-09T21:30:44.011Z,98566.91
2022-09-09T21:33:11.267Z,98566.56
2022-09-09T21:35:39.588Z,98575.13
2022-09-09T21:38:07.678Z,98573.38
2022-09-09T21:40:37.006Z,98572.56
2022-09-09T21:43:04.159Z,98558.91
2022-09-09T21:45:30.589Z,98571.88
2022-09-09T21:47:56.882Z,98573.75
2022-09-09T21:50:27.958Z,98573.88
2022-09-09T21:52:54.879Z,98566.97
2022-09-09T21:55:21.867Z,98577.53
2022-09-09T21:57:48.201Z,98574.13
2022-09-09T22:00:14.747Z,98571.78
2022-09-09T22:02:41.132Z,98566.53
2022-09-09T22:05:07.821Z,98572.84
2022-09-09T22:07:34.312Z,98575.16
2022-09-09T22:10:00.827Z,98571.88
2022-09-09T22:12:27.528Z,98575.03
2022-09-09T22:14:53.894Z,98575.97
2022-09-09T22:17:20.406Z,98565.78
2022-09-09T22:19:47.104Z,98578.88
2022-09-09T22:22:13.574Z,98569.19
2022-09-09T22:24:39.915Z,98568.47
2022-09-09T22:27:06.280Z,98563.56
2022-09-09T22:29:32.903Z,98567.75
2022-09-09T22:31:59.295Z,98567.19
2022-09-09T22:34:25.902Z,98577.00
2022-09-09T22:36:52.213Z,98577.34
2022-09-09T22:39:18.685Z,98575.97
2022-09-09T22:41:45.122Z,98576.19
2022-09-09T22:44:11.582Z,98576.44
2022-09-09T22:46:38.023Z,98577.72
2022-09-09T22:49:04.418Z,98571.63
2022-09-09T22:51:31.583Z,98568.88
2022-09-09T22:53:57.964Z,98573.06
2022-09-09T22:56:24.398Z,98568.16
2022-09-09T22:58:54.646Z,98575.28
2022-09-09T23:01:22.338Z,98577.03
2022-09-09T23:03:50.051Z,98568.50
2022-09-09T23:06:19.710Z,98581.50
2022-09-09T23:08:46.163Z,98577.69
2022-09-09T23:11:12.507Z,98587.41
2022-09-09T23:13:40.828Z,98592.09
2022-09-09T23:16:17.272Z,98589.84
2022-09-09T23:18:44.460Z,98598.16
2022-09-09T23:21:13.464Z,98595.81
2022-09-09T23:23:40.367Z,98598.88
2022-09-09T23:26:09.359Z,98604.84
2022-09-09T23:28:37.803Z,98605.88
2022-09-09T23:31:09.434Z,98606.47
2022-09-09T23:33:36.913Z,98614.09
2022-09-09T23:36:06.577Z,98609.28
2022-09-09T23:38:33.296Z,98611.97
2022-09-09T23:41:00.920Z,98612.47
2022-09-09T23:43:29.092Z,98610.69
2022-09-09T23:45:56.734Z,98617.09
2022-09-09T23:48:23.979Z,98608.00
2022-09-09T23:50:50.276Z,98610.56
2022-09-09T23:53:17.217Z,98606.63
2022-09-09T23:55:43.998Z,98618.66
2022-09-09T23:58:10.444Z,98619.09
